Time;durP1;ratioP1;P1;durP2;ratioP2;P2;SDS_P1;SDS_P2;PMS_P1;PMS_P2;Temp;Humidity;BMP_temperature;BMP_pressure;BME280_temperature;BME280_humidity;BME280_pressure;Samples;Min_cycle;Max_cycle;Signal;HPM_P1;HPM_P2
2022/04/27 00:02:20;;;;;;;7.55;5.00;;;;;;;11.54;88.72;100462.12;1765927;81;21203;-60
2022/04/27 00:05:26;;;;;;;7.58;5.42;;;;;;;11.50;88.89;100474.47;1764905;81;21546;-59
2022/04/27 00:08:32;;;;;;;6.47;5.20;;;;;;;11.46;89.09;100473.14;1766275;81;21325;-59
2022/04/27 00:11:39;;;;;;;7.45;5.05;;;;;;;11.41;89.38;100483.27;1766082;81;21195;-60
2022/04/27 00:14:47;;;;;;;7.40;5.80;;;;;;;11.37;89.67;100480.54;1768162;79;21221;-60
2022/04/27 00:17:54;;;;;;;7.22;5.65;;;;;;;11.35;90.04;100482.59;1767782;80;21359;-58
2022/04/27 00:21:00;;;;;;;7.85;5.17;;;;;;;11.33;90.33;100486.05;1766226;80;21185;-60
2022/04/27 00:24:06;;;;;;;7.87;5.50;;;;;;;11.31;90.59;100491.36;1765516;80;21255;-60
2022/04/27 00:27:12;;;;;;;7.40;5.28;;;;;;;11.29;90.84;100491.53;1765821;81;21229;-60
2022/04/27 00:30:19;;;;;;;7.80;5.83;;;;;;;11.26;91.08;100497.38;1765630;80;21200;-60
2022/04/27 00:33:25;;;;;;;7.85;5.92;;;;;;;11.23;91.31;100494.13;1748454;81;21201;-60
2022/04/27 00:36:33;;;;;;;8.13;6.00;;;;;;;11.21;91.51;100501.70;1765799;81;21209;-59
2022/04/27 00:39:40;;;;;;;10.18;6.50;;;;;;;11.16;91.77;100503.56;1765660;81;21244;-60
2022/04/27 00:42:47;;;;;;;14.45;6.67;;;;;;;11.14;92.00;100503.41;1765453;81;21267;-60
2022/04/27 00:45:52;;;;;;;7.67;6.35;;;;;;;11.10;92.23;100512.50;1777066;80;22009;-60
2022/04/27 00:48:58;;;;;;;8.90;6.22;;;;;;;11.06;92.46;100515.27;1797223;79;21225;-60
2022/04/27 00:52:03;;;;;;;7.95;6.80;;;;;;;11.04;92.69;100517.31;1703732;83;21211;-60
2022/04/27 00:55:12;;;;;;;9.55;7.17;;;;;;;11.01;92.89;100519.04;1766266;81;21209;-59
2022/04/27 00:58:19;;;;;;;11.57;6.87;;;;;;;10.99;93.10;100521.63;1768194;81;21214;-60
2022/04/27 01:01:27;;;;;;;8.45;6.62;;;;;;;10.96;93.31;100517.34;1767993;80;21201;-60
2022/04/27 01:04:37;;;;;;;8.33;6.85;;;;;;;10.93;93.49;100515.45;1771646;79;21198;-60
2022/04/27 01:07:45;;;;;;;9.15;6.25;;;;;;;10.89;93.67;100512.23;1757902;81;21213;-59
2022/04/27 01:10:51;;;;;;;9.05;7.30;;;;;;;10.87;93.85;100510.68;1757608;81;21209;-59
2022/04/27 01:13:59;;;;;;;10.85;7.00;;;;;;;10.83;94.01;100511.54;1742321;81;21193;-59
2022/04/27 01:17:05;;;;;;;10.43;6.62;;;;;;;10.81;94.16;100512.75;1757396;81;21197;-61
2022/04/27 01:20:11;;;;;;;8.03;6.92;;;;;;;10.79;94.28;100521.65;1757352;81;21189;-61
2022/04/27 01:23:19;;;;;;;8.88;7.10;;;;;;;10.76;94.35;100531.08;1751961;79;21287;-60
2022/04/27 01:26:25;;;;;;;9.88;6.30;;;;;;;10.73;94.37;100531.43;1730604;82;21269;-60
2022/04/27 01:29:31;;;;;;;10.32;6.90;;;;;;;10.71;94.42;100531.24;1713026;82;21299;-59
2022/04/27 01:32:38;;;;;;;11.00;7.03;;;;;;;10.69;94.42;100542.91;1770610;81;21259;-59
2022/04/27 01:35:45;;;;;;;10.15;6.42;;;;;;;10.65;94.36;100536.91;1770617;81;21192;-58
2022/04/27 01:38:51;;;;;;;10.63;6.83;;;;;;;10.63;94.38;100539.46;1770614;81;21208;-61
2022/04/27 01:41:56;;;;;;;9.18;6.33;;;;;;;10.61;94.41;100547.02;1770561;81;21236;-59
2022/04/27 01:45:03;;;;;;;9.35;6.55;;;;;;;10.59;94.35;100543.09;1779310;80;21248;-60
2022/04/27 01:48:09;;;;;;;9.40;6.87;;;;;;;10.55;94.34;100539.83;1791912;80;21276;-59
2022/04/27 01:51:14;;;;;;;7.92;6.20;;;;;;;10.54;94.37;100538.63;1716758;82;21193;-60
2022/04/27 01:54:21;;;;;;;9.10;6.20;;;;;;;10.51;94.34;100548.02;1766140;80;21363;-59
2022/04/27 01:57:30;;;;;;;7.95;6.47;;;;;;;10.49;94.30;100553.34;1767055;80;21209;-59
2022/04/27 02:00:36;;;;;;;10.93;6.10;;;;;;;10.44;94.23;100559.33;1791927;80;21186;-60
2022/04/27 02:03:44;;;;;;;8.55;6.87;;;;;;;10.40;94.20;100549.73;1767979;80;21210;-59
2022/04/27 02:06:51;;;;;;;9.20;6.55;;;;;;;10.37;94.21;100555.55;1714549;80;21221;-59
2022/04/27 02:09:58;;;;;;;10.08;6.92;;;;;;;10.34;94.19;100560.00;1721853;82;21182;-60
2022/04/27 02:13:07;;;;;;;7.53;6.22;;;;;;;10.30;94.21;100560.02;1721721;82;21268;-60
2022/04/27 02:16:12;;;;;;;10.05;6.65;;;;;;;10.27;94.19;100560.86;1721642;83;21205;-61
2022/04/27 02:19:21;;;;;;;8.00;6.53;;;;;;;10.25;94.28;100561.53;1721584;82;21229;-61
2022/04/27 02:22:28;;;;;;;13.10;10.40;;;;;;;10.22;94.32;100564.11;1788575;80;21233;-60
2022/04/27 02:25:33;;;;;;;8.65;6.87;;;;;;;10.21;94.37;100562.37;1721638;83;21300;-60
2022/04/27 02:28:42;;;;;;;9.13;6.97;;;;;;;10.18;94.44;100563.25;1772327;80;21316;-60
2022/04/27 02:31:49;;;;;;;8.73;6.50;;;;;;;10.17;94.49;100562.89;1772619;80;21237;-60
2022/04/27 02:34:54;;;;;;;8.25;6.60;;;;;;;10.13;94.47;100563.73;1721633;83;21213;-60
2022/04/27 02:38:04;;;;;;;7.05;5.80;;;;;;;10.12;94.47;100566.13;1789495;79;21371;-61
2022/04/27 02:41:13;;;;;;;8.10;6.47;;;;;;;10.09;94.43;100567.84;1795087;80;21244;-61
2022/04/27 02:44:21;;;;;;;8.65;6.35;;;;;;;10.06;94.39;100572.25;1788810;80;21213;-60
2022/04/27 02:47:26;;;;;;;8.05;6.37;;;;;;;10.04;94.39;100577.02;1795200;80;21370;-61
2022/04/27 02:53:56;;;;;;;7.92;5.92;;;;;;;10.03;94.36;100577.19;1796501;80;21605;-60
2022/04/27 02:57:01;;;;;;;9.33;7.20;;;;;;;10.01;94.33;100576.49;1788003;80;21222;-60
2022/04/27 03:00:07;;;;;;;8.63;6.53;;;;;;;10.02;94.39;100583.70;1788850;80;21555;-60
2022/04/27 03:03:10;;;;;;;9.68;7.00;;;;;;;10.02;94.33;100585.90;1720846;82;21253;-60
2022/04/27 03:06:02;;;;;;;10.43;7.08;;;;;;;10.03;94.34;100587.63;1788495;80;21197;-60
2022/04/27 03:09:10;;;;;;;9.33;6.70;;;;;;;10.06;94.35;100603.70;1721657;82;21245;-61
2022/04/27 03:12:16;;;;;;;8.58;6.75;;;;;;;10.08;94.36;100598.97;1789300;79;21706;-60
2022/04/27 03:15:25;;;;;;;9.53;6.80;;;;;;;10.12;94.34;100615.88;1797076;80;21197;-59
2022/04/27 03:18:33;;;;;;;10.03;7.25;;;;;;;10.15;94.29;100620.50;1789033;80;21216;-60
2022/04/27 03:21:38;;;;;;;10.15;7.50;;;;;;;10.19;94.26;100620.53;1789172;80;21375;-59
2022/04/27 03:24:46;;;;;;;10.68;7.53;;;;;;;10.22;94.18;100622.92;1789377;80;21210;-59
2022/04/27 03:27:55;;;;;;;8.60;6.78;;;;;;;10.25;94.03;100620.36;1789049;80;21271;-59
2022/04/27 03:31:01;;;;;;;17.02;12.55;;;;;;;10.30;93.99;100631.16;1720170;82;21165;-59
2022/04/27 03:34:09;;;;;;;15.93;12.68;;;;;;;10.33;93.88;100630.81;1770470;81;21176;-59
2022/04/27 03:37:18;;;;;;;14.40;10.38;;;;;;;10.38;93.79;100635.78;1775687;79;21165;-59
2022/04/27 03:40:27;;;;;;;9.28;7.60;;;;;;;10.43;93.73;100642.98;1779937;80;21194;-60
2022/04/27 03:43:33;;;;;;;11.05;7.00;;;;;;;10.47;93.60;100649.30;1771553;80;21233;-60
2022/04/27 03:46:39;;;;;;;9.03;6.83;;;;;;;10.52;93.39;100651.03;1773548;80;21174;-60
2022/04/27 03:49:47;;;;;;;10.82;8.83;;;;;;;10.58;93.25;100658.23;1775307;80;21248;-59
2022/04/27 03:52:54;;;;;;;9.43;7.15;;;;;;;10.64;93.07;100651.53;1758659;81;21264;-58
2022/04/27 03:56:01;;;;;;;8.68;7.22;;;;;;;10.70;92.98;100659.59;1772971;80;21153;-59
2022/04/27 03:59:08;;;;;;;9.53;7.05;;;;;;;10.77;92.92;100659.24;1777406;79;21208;-60
2022/04/27 04:02:14;;;;;;;8.48;7.20;;;;;;;10.83;92.81;100663.53;1774992;80;21252;-59
2022/04/27 04:05:23;;;;;;;9.10;7.28;;;;;;;10.90;92.70;100665.94;1773896;80;21351;-58
2022/04/27 04:08:30;;;;;;;9.20;6.97;;;;;;;10.98;92.52;100663.20;1772074;79;21216;-59
2022/04/27 04:11:38;;;;;;;10.65;7.87;;;;;;;11.04;92.25;100670.73;1785602;80;21189;-59
2022/04/27 04:14:53;;;;;;;8.45;7.03;;;;;;;11.10;92.05;100671.94;1703988;83;21273;-59
2022/04/27 04:18:02;;;;;;;10.13;7.80;;;;;;;11.17;91.94;100683.40;1707786;83;21233;-59
2022/04/27 04:21:14;;;;;;;11.20;8.93;;;;;;;11.22;91.58;100688.36;1784476;80;21174;-60
2022/04/27 04:24:28;;;;;;;11.30;8.18;;;;;;;11.25;91.42;100685.27;1706885;82;21205;-59
2022/04/27 04:31:03;;;;;;;9.05;7.83;;;;;;;11.40;91.27;100686.30;1708763;83;21181;-59
2022/04/27 04:34:11;;;;;;;10.15;7.55;;;;;;;11.54;91.04;100696.55;1725916;83;21786;-58
2022/04/27 04:37:20;;;;;;;9.85;7.78;;;;;;;11.66;90.63;100700.65;1773284;80;21204;-59
2022/04/27 04:40:26;;;;;;;12.73;7.87;;;;;;;11.83;90.34;100711.41;1718623;82;21189;-59
2022/04/27 04:43:39;;;;;;;8.98;7.10;;;;;;;11.97;89.70;100702.98;1772604;80;21268;-58
2022/04/27 04:46:49;;;;;;;9.98;7.95;;;;;;;12.12;89.15;100703.93;1781397;79;21252;-59
2022/04/27 04:49:57;;;;;;;9.80;7.45;;;;;;;12.30;88.82;100703.17;1737509;82;21197;-60
2022/04/27 04:53:14;;;;;;;8.60;7.70;;;;;;;12.46;87.96;100711.84;1738486;82;21220;-59
2022/04/27 04:56:22;;;;;;;9.40;7.35;;;;;;;12.54;87.07;100717.28;1758913;79;21201;-58
2022/04/27 04:59:42;;;;;;;12.05;7.28;;;;;;;12.60;86.48;100723.42;1718488;82;21193;-59
2022/04/27 05:03:01;;;;;;;7.53;6.45;;;;;;;12.70;85.91;100720.77;1770509;81;21204;-60
2022/04/27 05:06:14;;;;;;;7.87;6.45;;;;;;;12.84;85.43;100731.52;1709648;83;21322;-61
2022/04/27 05:09:40;;;;;;;7.42;6.22;;;;;;;12.95;84.87;100733.34;1796999;78;21295;-65
2022/04/27 05:12:49;;;;;;;11.70;6.70;;;;;;;13.12;84.50;100728.59;1718220;82;21248;-59
2022/04/27 05:16:17;;;;;;;7.55;5.53;;;;;;;13.25;83.64;100737.95;1722985;82;21597;-59
2022/04/27 05:19:33;;;;;;;8.40;5.70;;;;;;;13.39;83.11;100747.27;1722282;81;21253;-59
2022/04/27 05:23:20;;;;;;;11.12;6.42;;;;;;;13.49;82.36;100744.59;1780504;80;21236;-58
2022/04/27 05:26:49;;;;;;;7.47;5.78;;;;;;;13.53;80.77;100750.07;1780964;80;21350;-59
2022/04/27 05:33:33;;;;;;;9.25;4.83;;;;;;;13.56;79.59;100752.13;1743074;82;21271;-58
2022/04/27 05:36:43;;;;;;;5.97;5.37;;;;;;;13.71;78.43;100758.50;1752510;80;21189;-60
2022/04/27 05:40:10;;;;;;;6.72;5.80;;;;;;;13.77;77.90;100764.62;1744130;82;22065;-60
2022/04/27 05:43:21;;;;;;;6.53;5.33;;;;;;;13.86;77.22;100767.65;1745529;82;21344;-59
2022/04/27 05:46:32;;;;;;;6.67;4.80;;;;;;;13.92;76.70;100771.02;1743263;81;21294;-58
2022/04/27 05:49:42;;;;;;;5.75;4.95;;;;;;;13.98;76.64;100768.88;1775770;81;21252;-59
2022/04/27 05:53:05;;;;;;;5.62;4.65;;;;;;;14.09;76.27;100782.18;1652611;85;21288;-59
2022/04/27 05:56:19;;;;;;;5.62;4.95;;;;;;;14.17;75.76;100777.97;1783917;79;21204;-59
2022/04/27 05:59:31;;;;;;;6.78;4.55;;;;;;;14.13;74.51;100786.28;1787540;79;21852;-59
2022/04/27 06:02:39;;;;;;;7.45;4.40;;;;;;;14.10;74.34;100779.23;1761786;79;21200;-59
2022/04/27 06:05:48;;;;;;;6.30;4.50;;;;;;;14.15;73.90;100784.17;1797518;79;22136;-58
2022/04/27 06:08:57;;;;;;;5.45;4.47;;;;;;;14.11;73.37;100780.94;1745343;82;21280;-59
2022/04/27 06:12:24;;;;;;;5.75;4.85;;;;;;;14.13;72.82;100793.17;1773418;81;21196;-59
2022/04/27 06:15:40;;;;;;;6.90;4.28;;;;;;;14.23;72.57;100793.72;1745442;82;21438;-59
2022/04/27 06:18:58;;;;;;;7.20;4.67;;;;;;;14.28;71.96;100787.16;1745004;81;21207;-58
2022/04/27 06:22:03;;;;;;;7.10;4.40;;;;;;;14.26;72.00;100800.26;1744817;82;21196;-58
2022/04/27 06:25:15;;;;;;;6.90;4.37;;;;;;;14.32;71.85;100806.37;1745230;82;21620;-58
2022/04/27 06:28:29;;;;;;;5.42;3.67;;;;;;;14.40;71.47;100808.53;1745002;82;21283;-57
2022/04/27 06:31:36;;;;;;;4.50;3.30;;;;;;;14.40;70.24;100809.04;1745630;82;21220;-58
2022/04/27 06:34:49;;;;;;;6.42;4.90;;;;;;;14.38;69.23;100820.25;1745224;82;21386;-58
2022/04/27 06:37:57;;;;;;;7.90;3.55;;;;;;;14.47;68.98;100813.63;1745566;82;21765;-59
2022/04/27 06:41:05;;;;;;;5.50;3.70;;;;;;;14.61;69.17;100816.02;1744831;82;21390;-60
2022/04/27 06:44:31;;;;;;;4.92;3.45;;;;;;;14.68;68.29;100826.63;1746686;82;21287;-62
2022/04/27 06:47:57;;;;;;;6.45;4.33;;;;;;;14.80;67.60;100829.22;1737643;82;21259;-60
2022/04/27 06:51:19;;;;;;;6.72;4.47;;;;;;;14.92;67.01;100818.05;1640612;85;21615;-62
2022/04/27 06:54:33;;;;;;;6.28;3.85;;;;;;;15.05;66.72;100826.45;1779680;80;21224;-60
2022/04/27 06:57:54;;;;;;;5.58;3.62;;;;;;;15.19;65.58;100821.41;1796744;79;21742;-60
2022/04/27 07:00:59;;;;;;;5.17;3.62;;;;;;;15.29;65.49;100824.72;1771570;80;21717;-60
2022/04/27 07:04:09;;;;;;;4.90;3.60;;;;;;;15.33;65.02;100828.81;1715762;82;21236;-60
2022/04/27 07:07:15;;;;;;;3.67;2.90;;;;;;;15.36;65.10;100818.77;1740434;82;21284;-61
2022/04/27 07:10:24;;;;;;;5.95;3.58;;;;;;;15.44;63.58;100825.57;1780529;80;21831;-61
2022/04/27 07:13:36;;;;;;;4.53;2.92;;;;;;;15.51;62.87;100820.95;1717365;82;21749;-62
2022/04/27 07:16:42;;;;;;;5.65;3.02;;;;;;;15.61;61.46;100824.25;1734694;82;21280;-59
2022/04/27 07:19:53;;;;;;;4.17;3.08;;;;;;;15.65;61.24;100828.31;1707347;84;21191;-60
2022/04/27 07:23:07;;;;;;;4.03;2.80;;;;;;;15.64;59.21;100827.99;1737272;81;21710;-60
2022/04/27 07:26:18;;;;;;;4.37;2.80;;;;;;;15.63;58.55;100829.06;1771566;79;21840;-60
2022/04/27 07:29:24;;;;;;;6.05;2.95;;;;;;;15.71;58.00;100844.11;1709950;82;21232;-59
2022/04/27 07:32:32;;;;;;;5.72;3.08;;;;;;;15.76;57.72;100822.25;1720485;82;22143;-59
2022/04/27 07:35:38;;;;;;;3.92;2.72;;;;;;;15.80;58.11;100826.86;1713218;82;21244;-58
2022/04/27 07:38:45;;;;;;;3.95;2.67;;;;;;;15.89;57.69;100833.42;1771050;80;21212;-59
2022/04/27 07:41:59;;;;;;;3.47;2.40;;;;;;;15.89;56.68;100822.38;1763097;80;21775;-60
2022/04/27 07:45:06;;;;;;;3.33;2.90;;;;;;;16.02;56.47;100828.53;1701712;83;21738;-59
2022/04/27 07:48:13;;;;;;;6.05;2.55;;;;;;;16.13;55.73;100838.52;1715493;83;21219;-60
2022/04/27 07:51:23;;;;;;;3.98;2.75;;;;;;;16.24;55.58;100824.15;1697618;84;21201;-59
2022/04/27 07:54:29;;;;;;;3.77;2.70;;;;;;;16.39;55.95;100833.72;1702717;83;21617;-60
2022/04/27 07:57:37;;;;;;;4.15;2.60;;;;;;;16.55;55.75;100827.91;1700274;84;21264;-60
2022/04/27 08:00:43;;;;;;;5.97;2.55;;;;;;;16.73;53.69;100828.75;1695969;83;21204;-60
2022/04/27 08:03:49;;;;;;;6.20;5.03;;;;;;;16.80;52.78;100822.19;1688127;82;21271;-60
2022/04/27 08:06:56;;;;;;;2.80;2.37;;;;;;;16.91;51.94;100822.12;1689201;82;21199;-59
2022/04/27 08:10:02;;;;;;;3.22;2.10;;;;;;;17.02;50.87;100809.94;1656916;84;21315;-59
2022/04/27 08:13:09;;;;;;;2.55;2.27;;;;;;;17.16;50.41;100813.07;1711671;83;21563;-60
2022/04/27 08:16:21;;;;;;;3.17;2.40;;;;;;;17.26;49.27;100830.66;1717830;82;21225;-59
2022/04/27 08:19:30;;;;;;;2.90;2.55;;;;;;;17.26;49.24;100835.68;1713835;83;21252;-59
2022/04/27 08:22:42;;;;;;;4.33;2.80;;;;;;;17.19;50.94;100827.01;1704589;82;21229;-59
2022/04/27 08:25:49;;;;;;;2.70;2.27;;;;;;;17.14;51.33;100837.88;1692945;83;21376;-60
2022/04/27 08:28:58;;;;;;;4.72;2.37;;;;;;;17.21;51.01;100824.89;1688517;84;21235;-60
2022/04/27 08:32:04;;;;;;;3.12;2.00;;;;;;;17.32;49.92;100833.45;1675839;84;21228;-55
2022/04/27 08:35:11;;;;;;;4.30;2.30;;;;;;;17.30;48.69;100834.73;1687222;85;21222;-54
2022/04/27 08:38:23;;;;;;;5.28;1.90;;;;;;;17.23;46.40;100822.78;1650996;85;21248;-56
2022/04/27 08:41:35;;;;;;;3.83;2.50;;;;;;;17.26;46.83;100826.52;1723949;81;21293;-58
2022/04/27 08:44:42;;;;;;;3.10;2.60;;;;;;;17.30;46.69;100828.65;1742409;81;21196;-58
2022/04/27 08:47:52;;;;;;;3.90;2.08;;;;;;;17.42;47.36;100827.00;1742121;81;21777;-56
2022/04/27 08:51:05;;;;;;;3.65;1.90;;;;;;;17.44;47.98;100819.87;1742711;82;21527;-53
2022/04/27 08:54:09;;;;;;;3.52;2.40;;;;;;;17.44;46.15;100830.42;1735859;82;21288;-55
2022/04/27 08:57:16;;;;;;;3.20;2.10;;;;;;;17.41;46.38;100828.59;1743060;81;21855;-55
2022/04/27 09:00:23;;;;;;;3.55;2.33;;;;;;;17.41;47.43;100826.66;1742501;82;21247;-56
2022/04/27 09:03:44;;;;;;;3.55;2.27;;;;;;;17.52;47.84;100839.09;1735550;82;21165;-57
2022/04/27 09:06:52;;;;;;;6.03;2.50;;;;;;;17.60;47.04;100839.72;1742871;82;21185;-60
2022/04/27 09:10:00;;;;;;;5.92;2.90;;;;;;;17.59;46.46;100838.55;1729265;82;21201;-61
2022/04/27 09:13:06;;;;;;;4.97;2.50;;;;;;;17.55;45.94;100835.89;1683753;82;21255;-61
2022/04/27 09:16:13;;;;;;;3.15;2.33;;;;;;;17.54;46.30;100846.63;1742652;81;21185;-61
2022/04/27 09:22:53;;;;;;;4.35;2.80;;;;;;;17.57;46.91;100844.30;1778799;80;21199;-61
2022/04/27 09:26:03;;;;;;;5.33;3.37;;;;;;;17.74;47.11;100839.23;1740143;82;21236;-62
2022/04/27 09:29:09;;;;;;;3.35;2.40;;;;;;;17.88;47.23;100840.94;1742708;81;21193;-62
2022/04/27 09:32:18;;;;;;;4.15;2.45;;;;;;;18.14;46.55;100833.17;1729720;81;21192;-61
2022/04/27 09:35:42;;;;;;;6.15;3.25;;;;;;;18.42;45.95;100839.36;1687689;83;21745;-59
2022/04/27 09:38:48;;;;;;;5.15;3.10;;;;;;;18.56;45.07;100841.89;1713680;83;21228;-61
2022/04/27 09:41:56;;;;;;;3.90;2.83;;;;;;;18.37;45.36;100835.81;1712318;83;21299;-60
2022/04/27 09:45:02;;;;;;;4.15;2.47;;;;;;;18.24;45.97;100831.66;1723915;82;21355;-60
2022/04/27 09:48:11;;;;;;;2.87;2.47;;;;;;;18.16;44.17;100829.11;1728715;82;21219;-59
2022/04/27 09:51:23;;;;;;;5.42;2.30;;;;;;;18.05;45.22;100842.22;1719140;81;21737;-60
2022/04/27 09:54:34;;;;;;;6.17;3.10;;;;;;;17.98;46.60;100838.61;1738368;82;22093;-60
2022/04/27 09:57:44;;;;;;;3.55;2.80;;;;;;;18.06;47.62;100833.38;1737493;81;21255;-61
2022/04/27 10:00:52;;;;;;;3.00;2.20;;;;;;;18.20;47.84;100835.08;1759689;80;21189;-60
2022/04/27 10:04:00;;;;;;;3.30;2.17;;;;;;;18.35;46.89;100837.08;1775597;80;21205;-60
2022/04/27 10:07:16;;;;;;;2.70;1.92;;;;;;;18.49;45.50;100853.52;1694328;83;21265;-54
2022/04/27 10:10:24;;;;;;;4.70;2.50;;;;;;;18.43;44.86;100833.59;1713922;83;21738;-54
2022/04/27 10:13:31;;;;;;;3.12;2.40;;;;;;;18.44;44.93;100829.73;1704627;84;21216;-54
2022/04/27 10:16:37;;;;;;;3.20;2.40;;;;;;;18.59;45.27;100842.84;1699386;84;21201;-54
2022/04/27 10:19:58;;;;;;;3.58;2.77;;;;;;;18.68;45.71;100829.05;1699413;84;21197;-54
2022/04/27 10:23:31;;;;;;;2.72;2.25;;;;;;;18.78;44.92;100825.82;1714068;83;21664;-54
2022/04/27 10:26:38;;;;;;;4.03;2.12;;;;;;;18.81;44.28;100831.80;1728174;83;21515;-54
2022/04/27 10:29:44;;;;;;;2.50;1.90;;;;;;;18.87;44.00;100832.30;1724963;82;21743;-59
2022/04/27 10:32:57;;;;;;;4.25;1.92;;;;;;;18.95;43.49;100840.38;1693572;83;21244;-59
2022/04/27 10:36:38;;;;;;;5.30;2.30;;;;;;;18.95;44.03;100826.52;1714399;83;21190;-60
2022/04/27 10:39:49;;;;;;;3.20;2.25;;;;;;;19.07;44.29;100834.48;1711016;83;21345;-59
2022/04/27 10:43:19;;;;;;;5.95;2.33;;;;;;;19.04;44.96;100832.12;1705006;83;21767;-60
2022/04/27 10:46:47;;;;;;;4.00;2.35;;;;;;;19.04;44.97;100843.78;1712849;83;21200;-59
2022/04/27 10:49:54;;;;;;;3.15;1.77;;;;;;;18.99;44.84;100837.50;1711230;83;21190;-58
2022/04/27 10:53:03;;;;;;;2.83;1.75;;;;;;;19.04;44.67;100836.84;1735881;82;21749;-59
2022/04/27 10:56:32;;;;;;;3.92;2.30;;;;;;;19.21;44.42;100844.45;1724793;82;21405;-60
2022/04/27 11:00:07;;;;;;;2.55;1.80;;;;;;;19.31;43.50;100839.29;1727112;82;21194;-54
2022/04/27 11:03:25;;;;;;;3.70;2.33;;;;;;;19.29;43.19;100835.91;1730617;81;21358;-52
2022/04/27 11:06:34;;;;;;;5.08;2.98;;;;;;;19.36;43.71;100860.00;1748781;82;21263;-52
2022/04/27 11:09:52;;;;;;;2.08;1.80;;;;;;;19.30;44.26;100863.11;1737971;80;21201;-54
2022/04/27 11:13:01;;;;;;;4.40;1.87;;;;;;;19.14;44.37;100854.72;1736960;82;21824;-54
2022/04/27 11:16:20;;;;;;;3.50;1.62;;;;;;;18.79;44.54;100853.34;1728928;81;21216;-53
2022/04/27 11:19:28;;;;;;;2.25;1.60;;;;;;;18.54;44.99;100850.09;1734563;82;21224;-53
2022/04/27 11:23:00;;;;;;;2.08;1.57;;;;;;;18.34;45.72;100862.58;1738260;82;21276;-53
2022/04/27 11:26:08;;;;;;;2.85;1.67;;;;;;;18.21;46.44;100857.03;1715087;82;21747;-55
2022/04/27 11:29:29;;;;;;;4.25;2.05;;;;;;;18.00;47.06;100875.25;1747242;82;21261;-53
2022/04/27 11:32:44;;;;;;;3.27;2.00;;;;;;;17.72;47.41;100863.50;1718460;82;21211;-52
2022/04/27 11:35:52;;;;;;;1.95;1.40;;;;;;;17.59;48.39;100869.00;1746646;80;21728;-47
2022/04/27 11:39:00;;;;;;;2.08;1.42;;;;;;;17.51;48.85;100859.50;1720588;81;22088;-56
2022/04/27 11:42:12;;;;;;;4.15;1.70;;;;;;;17.50;49.04;100871.13;1692867;83;21231;-58
2022/04/27 11:45:29;;;;;;;2.27;1.62;;;;;;;17.42;48.70;100860.73;1726192;80;21183;-57
2022/04/27 11:48:37;;;;;;;3.67;1.40;;;;;;;17.38;48.98;100855.27;1728780;81;21216;-57
2022/04/27 11:51:46;;;;;;;1.77;1.40;;;;;;;17.52;48.90;100857.08;1736045;81;21208;-57
2022/04/27 11:54:56;;;;;;;2.35;1.60;;;;;;;17.67;48.91;100859.12;1747281;81;21234;-56
2022/04/27 11:58:02;;;;;;;1.98;1.22;;;;;;;17.89;48.66;100863.41;1741662;80;21709;-58
2022/04/27 12:01:09;;;;;;;1.95;1.30;;;;;;;18.08;48.57;100851.48;1720698;82;21645;-59
2022/04/27 12:04:16;;;;;;;2.75;1.45;;;;;;;18.24;47.79;100851.06;1721785;81;21251;-59
2022/04/27 12:07:22;;;;;;;1.60;1.35;;;;;;;18.36;47.74;100862.37;1742966;80;21753;-58
2022/04/27 12:10:29;;;;;;;1.87;1.40;;;;;;;18.42;46.98;100861.02;1720487;83;21208;-59
2022/04/27 12:13:35;;;;;;;1.15;1.05;;;;;;;18.60;46.93;100848.70;1720973;83;21290;-59
2022/04/27 12:16:47;;;;;;;1.65;1.20;;;;;;;18.79;46.99;100853.34;1723443;82;21211;-59
2022/04/27 12:19:55;;;;;;;3.10;1.50;;;;;;;19.00;46.79;100860.02;1749731;82;21180;-60
2022/04/27 12:23:09;;;;;;;1.25;1.10;;;;;;;19.19;46.55;100846.59;1744966;82;21215;-59
2022/04/27 12:26:16;;;;;;;2.40;1.40;;;;;;;19.50;45.72;100844.44;1737019;80;21784;-59
2022/04/27 12:29:21;;;;;;;1.67;1.20;;;;;;;19.87;45.39;100849.66;1732455;81;21295;-59
2022/04/27 12:32:27;;;;;;;2.92;1.50;;;;;;;20.13;44.25;100848.05;1744157;82;21243;-59
2022/04/27 12:39:26;;;;;;;2.65;1.10;;;;;;;20.31;42.33;100857.31;1752435;81;21235;-60
2022/04/27 12:42:34;;;;;;;2.37;1.67;;;;;;;20.16;42.35;100842.92;1727978;82;21736;-59
2022/04/27 12:45:43;;;;;;;3.02;1.40;;;;;;;20.30;42.98;100851.98;1714482;83;21787;-59
2022/04/27 12:48:51;;;;;;;2.22;1.40;;;;;;;20.20;42.47;100846.11;1704625;84;21208;-59
2022/04/27 12:51:59;;;;;;;2.25;1.40;;;;;;;19.98;42.64;100858.66;1733018;82;21832;-57
2022/04/27 12:55:22;;;;;;;1.77;1.12;;;;;;;19.87;42.55;100867.72;1732600;82;21173;-58
2022/04/27 12:58:32;;;;;;;3.67;1.20;;;;;;;19.74;42.21;100849.73;1731766;82;21276;-58
2022/04/27 13:01:39;;;;;;;2.12;1.27;;;;;;;19.73;41.40;100854.44;1726182;82;21755;-59
2022/04/27 13:04:47;;;;;;;1.70;0.90;;;;;;;19.90;41.37;100852.81;1710056;82;21320;-60
2022/04/27 13:07:47;;;;;;;2.75;1.50;;;;;;;20.13;40.70;100852.22;1717566;82;21421;-60
2022/04/27 13:14:17;;;;;;;2.50;1.60;;;;;;;20.41;40.91;100856.27;1712605;81;21831;-59
2022/04/27 13:17:24;;;;;;;1.35;1.25;;;;;;;20.38;40.58;100851.70;1703639;84;21232;-59
2022/04/27 13:20:30;;;;;;;1.85;1.20;;;;;;;20.15;40.55;100850.09;1704529;82;21265;-59
2022/04/27 13:23:36;;;;;;;3.00;1.47;;;;;;;19.77;41.25;100858.48;1704162;84;21212;-59
2022/04/27 13:26:43;;;;;;;1.80;1.42;;;;;;;19.37;41.94;100857.53;1703873;84;21239;-59
2022/04/27 13:29:54;;;;;;;4.35;1.45;;;;;;;18.95;42.81;100857.03;1705330;84;21471;-58
2022/04/27 13:33:01;;;;;;;3.10;1.72;;;;;;;18.65;43.82;100871.61;1709249;82;21244;-58
2022/04/27 13:36:10;;;;;;;3.60;2.00;;;;;;;18.39;45.14;100866.12;1712949;82;21749;-58
2022/04/27 13:39:21;;;;;;;1.85;1.37;;;;;;;18.23;45.43;100866.52;1703280;81;21220;-57
2022/04/27 13:42:26;;;;;;;2.95;1.90;;;;;;;18.05;45.06;100858.84;1714183;82;21359;-56
2022/04/27 13:45:33;;;;;;;2.98;1.62;;;;;;;17.95;44.40;100865.33;1706894;82;21188;-57
2022/04/27 13:48:41;;;;;;;4.87;2.00;;;;;;;17.89;44.22;100861.50;1748944;82;21802;-57
2022/04/27 13:51:47;;;;;;;2.92;1.75;;;;;;;17.83;44.59;100865.65;1730399;82;21259;-58
2022/04/27 13:54:56;;;;;;;4.22;1.90;;;;;;;17.83;44.55;100860.97;1722546;82;21258;-58
2022/04/27 13:58:01;;;;;;;4.78;2.10;;;;;;;17.84;44.62;100865.95;1722300;83;21226;-58
2022/04/27 14:01:10;;;;;;;5.17;1.90;;;;;;;17.89;45.38;100867.56;1721633;83;21692;-59
2022/04/27 14:04:21;;;;;;;3.90;2.17;;;;;;;18.01;45.86;100860.35;1736649;80;21322;-62
2022/04/27 14:07:28;;;;;;;2.50;1.82;;;;;;;18.19;45.60;100865.27;1736896;80;21816;-61
2022/04/27 14:10:34;;;;;;;2.40;1.82;;;;;;;18.55;45.07;100870.67;1746102;82;21208;-61
2022/04/27 14:13:43;;;;;;;1.75;1.55;;;;;;;18.66;44.56;100866.41;1744452;82;21224;-63
2022/04/27 14:20:17;;;;;;;4.90;2.42;;;;;;;18.80;45.15;100868.08;1722668;83;21586;-61
2022/04/27 14:23:24;;;;;;;4.47;2.83;;;;;;;19.25;44.24;100870.69;1735020;80;21216;-62
2022/04/27 14:26:30;;;;;;;2.65;1.60;;;;;;;19.74;43.48;100878.35;1722501;83;21215;-61
2022/04/27 14:29:37;;;;;;;1.75;1.40;;;;;;;19.91;42.18;100889.27;1722797;83;21773;-62
2022/04/27 14:32:42;;;;;;;3.30;1.95;;;;;;;19.95;41.41;100877.14;1734459;80;22112;-61
2022/04/27 14:35:48;;;;;;;2.50;1.70;;;;;;;19.97;40.90;100875.00;1766437;80;21212;-60
2022/04/27 14:38:54;;;;;;;3.10;1.87;;;;;;;19.84;40.42;100873.70;1717691;83;21199;-62
2022/04/27 14:42:00;;;;;;;3.80;1.70;;;;;;;20.14;40.68;100884.52;1745074;82;21207;-62
2022/04/27 14:45:08;;;;;;;2.75;1.50;;;;;;;20.78;39.36;100885.02;1721001;83;21712;-62
2022/04/27 14:48:17;;;;;;;4.67;1.60;;;;;;;20.57;39.43;100877.09;1722981;83;21315;-61
2022/04/27 14:51:23;;;;;;;3.33;1.80;;;;;;;20.39;39.22;100885.41;1720435;83;21200;-62
2022/04/27 14:54:29;;;;;;;1.77;1.55;;;;;;;20.11;39.83;100886.33;1718408;81;21247;-61
2022/04/27 14:57:37;;;;;;;2.10;1.55;;;;;;;20.70;38.96;100876.96;1734950;82;21244;-61
2022/04/27 15:00:43;;;;;;;2.92;1.47;;;;;;;21.28;38.51;100872.67;1735697;82;21204;-62
2022/04/27 15:03:50;;;;;;;11.20;2.17;;;;;;;21.16;38.47;100880.13;1735681;82;21800;-60
2022/04/27 15:06:58;;;;;;;2.98;1.90;;;;;;;20.67;38.96;100881.06;1735820;82;21267;-60